createdAt,value
2022-10-15T00:01:49.724Z,4.40
2022-10-15T00:04:18.160Z,4.40
2022-10-15T00:06:46.418Z,3.90
2022-10-15T00:09:14.721Z,3.90
2022-10-15T00:11:42.950Z,3.80
2022-10-15T00:14:11.166Z,3.30
2022-10-15T00:16:39.435Z,3.40
2022-10-15T00:19:07.825Z,3.20
2022-10-15T00:21:37.365Z,3.70
2022-10-15T00:26:34.701Z,2.90
2022-10-15T00:29:04.526Z,2.60
2022-10-15T00:31:33.690Z,2.70
2022-10-15T00:34:03.026Z,3.30
2022-10-15T00:36:35.679Z,2.70
2022-10-15T00:39:06.718Z,2.70
2022-10-15T00:41:42.057Z,2.80
2022-10-15T00:44:26.836Z,2.60
2022-10-15T00:47:38.006Z,2.80
2022-10-15T00:50:13.111Z,2.60
2022-10-15T00:52:43.940Z,2.70
2022-10-15T00:55:33.157Z,2.70
2022-10-15T00:58:07.184Z,2.50
2022-10-15T01:00:35.949Z,2.70
2022-10-15T01:03:04.192Z,2.40
2022-10-15T01:05:34.925Z,2.10
2022-10-15T01:08:03.326Z,2.40
2022-10-15T01:11:10.034Z,2.50
2022-10-15T01:13:48.024Z,2.20
2022-10-15T01:16:32.274Z,2.40
2022-10-15T01:19:28.287Z,2.20
2022-10-15T01:22:10.150Z,1.90
2022-10-15T01:24:39.278Z,2.20
2022-10-15T01:27:47.309Z,2.40
2022-10-15T01:30:42.305Z,2.10
2022-10-15T01:33:29.877Z,2.30
2022-10-15T01:36:16.225Z,2.00
2022-10-15T01:38:51.865Z,2.70
2022-10-15T01:41:25.685Z,2.10
2022-10-15T01:44:12.371Z,2.00
2022-10-15T01:49:39.048Z,1.80
2022-10-15T01:52:16.894Z,1.90
2022-10-15T01:54:50.993Z,1.80
2022-10-15T01:57:21.946Z,1.70
2022-10-15T01:59:54.262Z,2.30
2022-10-15T02:02:25.765Z,2.10
2022-10-15T02:08:09.918Z,2.60
2022-10-15T02:10:55.868Z,2.20
2022-10-15T02:13:48.628Z,2.20
2022-10-15T02:16:36.574Z,2.30
2022-10-15T02:19:07.009Z,2.30
2022-10-15T02:21:59.516Z,2.30
2022-10-15T02:24:36.517Z,2.10
2022-10-15T02:27:08.580Z,2.10
2022-10-15T02:29:41.539Z,2.70
2022-10-15T02:32:12.402Z,2.40
2022-10-15T02:34:41.741Z,2.30
2022-10-15T02:37:10.162Z,2.00
2022-10-15T02:39:38.629Z,2.40
2022-10-15T02:42:07.488Z,2.40
2022-10-15T02:44:35.830Z,2.30
2022-10-15T02:47:04.501Z,2.30
2022-10-15T02:49:32.935Z,2.00
2022-10-15T02:52:01.189Z,2.10
2022-10-15T02:54:30.678Z,2.50
2022-10-15T02:57:01.920Z,1.90
2022-10-15T03:02:00.102Z,2.40
2022-10-15T03:04:28.805Z,2.30
2022-10-15T03:06:57.278Z,2.70
2022-10-15T03:09:25.740Z,2.20
2022-10-15T03:11:54.112Z,2.30
2022-10-15T03:14:22.591Z,2.40
2022-10-15T03:16:51.085Z,2.30
2022-10-15T03:19:19.897Z,2.60
2022-10-15T03:21:48.293Z,2.20
2022-10-15T03:24:16.848Z,2.20
2022-10-15T03:26:45.328Z,2.40
2022-10-15T03:29:13.910Z,2.50
2022-10-15T03:31:49.880Z,2.20
2022-10-15T03:34:18.818Z,2.30
2022-10-15T03:36:47.538Z,2.10
2022-10-15T03:39:17.869Z,2.60
2022-10-15T03:44:20.462Z,2.40
2022-10-15T03:46:58.856Z,2.60
2022-10-15T03:49:29.978Z,3.00
2022-10-15T03:51:58.297Z,2.90
2022-10-15T03:54:27.074Z,2.50
2022-10-15T03:56:55.753Z,2.20
2022-10-15T03:59:28.929Z,2.20
2022-10-15T04:01:59.889Z,2.50
2022-10-15T04:04:28.483Z,2.50
2022-10-15T04:06:56.946Z,2.40
2022-10-15T04:09:26.144Z,2.30
2022-10-15T04:11:58.327Z,2.00
2022-10-15T04:14:26.798Z,1.90
2022-10-15T04:16:59.138Z,2.50
2022-10-15T04:19:29.273Z,2.20
2022-10-15T04:22:03.196Z,2.10
2022-10-15T04:24:34.399Z,2.40
2022-10-15T04:27:03.570Z,2.30
2022-10-15T04:29:32.581Z,2.50
2022-10-15T04:32:15.645Z,2.60
2022-10-15T04:34:46.542Z,2.00
2022-10-15T04:37:15.629Z,2.50
2022-10-15T04:39:44.180Z,2.40
2022-10-15T04:42:15.121Z,2.20
2022-10-15T04:44:43.676Z,2.40
2022-10-15T04:47:13.701Z,2.50
2022-10-15T04:49:48.490Z,2.60
2022-10-15T04:52:28.605Z,2.80
2022-10-15T04:54:58.868Z,3.40
2022-10-15T04:57:27.371Z,3.50
2022-10-15T04:59:57.855Z,2.30
2022-10-15T05:02:38.045Z,1.90
2022-10-15T05:05:47.854Z,2.20
2022-10-15T05:08:16.643Z,2.40
2022-10-15T05:11:09.819Z,2.30
2022-10-15T05:13:38.627Z,2.10
2022-10-15T05:16:22.393Z,2.50
2022-10-15T05:18:53.528Z,2.90
2022-10-15T05:21:21.811Z,2.20
2022-10-15T05:23:52.537Z,2.10
2022-10-15T05:29:10.180Z,2.20
2022-10-15T05:31:39.799Z,2.20
2022-10-15T05:34:15.688Z,2.20
2022-10-15T05:37:05.125Z,2.60
2022-10-15T05:39:33.459Z,2.00
2022-10-15T05:42:02.082Z,2.50
2022-10-15T05:44:37.514Z,2.50
2022-10-15T05:47:06.839Z,2.20
2022-10-15T05:49:36.083Z,2.10
2022-10-15T05:52:13.095Z,2.40
2022-10-15T05:55:00.052Z,2.90
2022-10-15T05:57:28.301Z,2.40
2022-10-15T05:59:57.153Z,2.30
2022-10-15T06:02:25.705Z,2.30
2022-10-15T06:04:54.204Z,2.50
2022-10-15T06:07:22.736Z,2.10
2022-10-15T06:09:51.898Z,2.30
2022-10-15T06:12:20.185Z,2.80
2022-10-15T06:14:49.185Z,2.50
2022-10-15T06:17:17.523Z,3.00
2022-10-15T06:19:48.849Z,2.80
2022-10-15T06:22:17.589Z,2.70
2022-10-15T06:24:45.816Z,2.50
2022-10-15T06:27:14.232Z,2.60
2022-10-15T06:29:42.507Z,3.00
2022-10-15T06:32:11.858Z,2.60
2022-10-15T06:34:44.816Z,2.50
2022-10-15T06:37:13.204Z,2.50
2022-10-15T06:39:41.475Z,3.00
2022-10-15T06:42:09.897Z,2.70
2022-10-15T06:44:41.805Z,2.60
2022-10-15T06:47:10.224Z,2.20
2022-10-15T06:49:38.540Z,2.50
2022-10-15T06:52:06.804Z,2.60
2022-10-15T06:54:35.102Z,2.50
2022-10-15T06:57:03.447Z,2.70
2022-10-15T06:59:31.718Z,2.90
2022-10-15T07:02:01.966Z,2.80
2022-10-15T07:04:30.193Z,2.60
2022-10-15T07:06:58.438Z,2.70
2022-10-15T07:09:31.558Z,2.70
2022-10-15T07:12:00.060Z,2.90
2022-10-15T07:14:28.577Z,2.50
2022-10-15T07:16:57.913Z,2.60
2022-10-15T07:19:28.554Z,4.30
2022-10-15T07:21:57.226Z,2.30
2022-10-15T07:24:25.501Z,2.80
2022-10-15T07:26:53.751Z,2.20
2022-10-15T07:29:22.053Z,2.40
2022-10-15T07:31:50.282Z,2.50
2022-10-15T07:34:19.997Z,2.90
2022-10-15T07:36:48.382Z,2.90
2022-10-15T07:39:19.365Z,2.80
2022-10-15T07:41:47.819Z,3.10
2022-10-15T07:44:16.239Z,3.30
2022-10-15T07:46:44.460Z,3.30
2022-10-15T07:49:12.813Z,3.10
2022-10-15T07:51:41.282Z,3.20
2022-10-15T07:54:09.654Z,3.20
2022-10-15T07:56:37.889Z,3.30
2022-10-15T07:59:08.386Z,3.40
2022-10-15T08:01:36.789Z,5.30
2022-10-15T08:04:05.084Z,3.90
2022-10-15T08:06:33.779Z,3.20
2022-10-15T08:09:04.355Z,3.10
2022-10-15T08:11:32.598Z,2.80
2022-10-15T08:14:00.753Z,3.10
2022-10-15T08:16:28.989Z,2.90
2022-10-15T08:19:01.138Z,3.10
2022-10-15T08:21:29.654Z,2.90
2022-10-15T08:23:57.910Z,2.90
2022-10-15T08:26:35.447Z,2.20
2022-10-15T08:29:04.519Z,2.60
2022-10-15T08:31:32.888Z,2.30
2022-10-15T08:34:02.785Z,2.70
2022-10-15T08:36:31.277Z,2.60
2022-10-15T08:39:00.003Z,2.30
2022-10-15T08:41:51.413Z,2.40
2022-10-15T08:44:24.538Z,2.60
2022-10-15T08:47:08.506Z,2.90
2022-10-15T08:49:52.288Z,3.20
2022-10-15T08:52:59.226Z,3.10
2022-10-15T08:55:36.208Z,2.80
2022-10-15T08:58:17.261Z,3.40
2022-10-15T09:00:56.785Z,2.60
2022-10-15T09:06:22.609Z,2.90
2022-10-15T09:09:45.909Z,2.90
2022-10-15T09:12:50.518Z,2.60
2022-10-15T09:15:25.398Z,3.00
2022-10-15T09:17:56.085Z,2.60
2022-10-15T09:20:36.133Z,2.80
2022-10-15T09:23:16.966Z,2.80
2022-10-15T09:25:52.207Z,2.80
2022-10-15T09:28:26.179Z,2.20
2022-10-15T09:30:58.403Z,2.40
2022-10-15T09:33:57.554Z,2.50
2022-10-15T09:36:52.101Z,2.30
2022-10-15T09:39:43.669Z,2.40
2022-10-15T09:42:31.918Z,2.40
2022-10-15T09:45:10.052Z,2.30
2022-10-15T09:47:42.833Z,2.20
2022-10-15T09:50:14.735Z,2.90
2022-10-15T09:53:15.522Z,2.40
2022-10-15T09:55:56.363Z,2.60
2022-10-15T09:58:37.743Z,2.80
2022-10-15T10:01:16.629Z,2.60
2022-10-15T10:03:44.780Z,2.80
2022-10-15T10:06:15.708Z,2.70
2022-10-15T10:08:59.553Z,2.50
2022-10-15T10:11:47.637Z,2.20
2022-10-15T10:14:39.677Z,2.20
2022-10-15T10:17:23.698Z,2.50
2022-10-15T10:20:10.419Z,2.30
2022-10-15T10:22:50.518Z,2.40
2022-10-15T10:25:27.890Z,2.30
2022-10-15T10:28:09.547Z,2.70
2022-10-15T10:30:54.474Z,2.70
2022-10-15T10:33:28.912Z,2.60
2022-10-15T10:35:57.638Z,2.70
2022-10-15T10:38:33.626Z,2.20
2022-10-15T10:41:11.888Z,2.40
2022-10-15T10:43:53.053Z,2.80
2022-10-15T10:46:24.650Z,2.40
2022-10-15T10:48:54.228Z,2.50
2022-10-15T10:51:27.043Z,2.40
2022-10-15T10:54:06.976Z,2.20
2022-10-15T10:56:42.701Z,2.40
2022-10-15T10:59:37.897Z,2.30
2022-10-15T11:02:12.439Z,2.30
2022-10-15T11:04:40.871Z,2.40
2022-10-15T11:07:35.454Z,2.30
2022-10-15T11:10:19.306Z,2.80
2022-10-15T11:13:18.921Z,2.70
2022-10-15T11:16:31.244Z,2.40
2022-10-15T11:19:55.002Z,2.70
2022-10-15T11:22:33.006Z,2.50
2022-10-15T11:25:39.345Z,2.90
2022-10-15T11:28:45.127Z,2.50
2022-10-15T11:31:25.515Z,2.80
2022-10-15T11:34:18.054Z,2.90
2022-10-15T11:37:21.686Z,2.70
2022-10-15T11:40:37.984Z,2.10
2022-10-15T11:43:31.149Z,2.40
2022-10-15T11:46:11.558Z,2.70
2022-10-15T11:48:55.414Z,2.60
2022-10-15T11:52:03.971Z,2.90
2022-10-15T11:54:38.655Z,2.50
2022-10-15T11:57:13.365Z,2.80
2022-10-15T12:00:07.442Z,2.40
2022-10-15T12:02:40.678Z,2.60
2022-10-15T12:05:27.738Z,2.50
2022-10-15T12:07:56.765Z,2.50
2022-10-15T12:11:07.656Z,2.70
2022-10-15T12:14:25.296Z,2.20
2022-10-15T12:17:15.624Z,2.40
2022-10-15T12:20:00.928Z,2.50
2022-10-15T12:22:41.261Z,2.10
2022-10-15T12:25:35.294Z,2.50
2022-10-15T12:28:22.695Z,2.60
2022-10-15T12:31:06.445Z,2.40
2022-10-15T12:33:57.989Z,2.90
2022-10-15T12:36:30.567Z,2.20
2022-10-15T12:39:11.459Z,2.50
2022-10-15T12:41:50.987Z,2.90
2022-10-15T12:46:58.434Z,2.20
2022-10-15T12:49:26.624Z,2.20
2022-10-15T12:51:56.431Z,2.40
2022-10-15T12:54:41.248Z,2.20
2022-10-15T12:57:31.226Z,2.30
2022-10-15T13:00:38.961Z,2.70
2022-10-15T13:03:31.587Z,2.20
2022-10-15T13:06:22.002Z,2.60
2022-10-15T13:09:11.742Z,2.10
2022-10-15T13:11:53.041Z,2.60
2022-10-15T13:14:42.956Z,2.60
2022-10-15T13:17:20.965Z,2.50
2022-10-15T13:20:09.081Z,2.10
2022-10-15T13:22:37.638Z,2.20
2022-10-15T13:25:17.451Z,2.30
2022-10-15T13:27:45.717Z,2.30
2022-10-15T13:30:16.762Z,2.60
2022-10-15T13:32:54.407Z,2.40
2022-10-15T13:35:33.269Z,2.50
2022-10-15T13:38:05.292Z,2.30
2022-10-15T13:40:33.766Z,2.50
2022-10-15T13:43:02.839Z,3.00
2022-10-15T13:45:31.492Z,2.80
2022-10-15T13:48:00.524Z,2.70
2022-10-15T13:50:50.387Z,2.80
2022-10-15T13:53:27.643Z,2.40
2022-10-15T13:56:01.510Z,2.70
2022-10-15T13:58:37.759Z,2.40
2022-10-15T14:01:20.809Z,2.40
2022-10-15T14:04:00.971Z,2.50
2022-10-15T14:06:38.750Z,2.50
2022-10-15T14:09:27.203Z,2.30
2022-10-15T14:12:00.551Z,2.70
2022-10-15T14:14:46.634Z,2.50
2022-10-15T14:17:20.597Z,2.60
2022-10-15T14:20:22.083Z,2.40
2022-10-15T14:22:49.671Z,3.20
2022-10-15T14:25:25.167Z,2.80
2022-10-15T14:27:53.804Z,2.90
2022-10-15T14:30:33.273Z,2.80
2022-10-15T14:33:01.757Z,3.00
2022-10-15T14:35:36.697Z,2.60
2022-10-15T14:38:10.933Z,2.50
2022-10-15T14:40:39.235Z,2.70
2022-10-15T14:43:17.546Z,2.70
2022-10-15T14:45:52.282Z,2.20
2022-10-15T14:48:39.014Z,3.30
2022-10-15T14:51:17.686Z,2.90
2022-10-15T14:53:47.364Z,2.60
2022-10-15T14:56:32.258Z,2.60
2022-10-15T14:59:01.318Z,2.80
2022-10-15T15:01:34.052Z,2.70
2022-10-15T15:04:02.463Z,2.60
2022-10-15T15:06:32.907Z,2.60
2022-10-15T15:09:01.170Z,2.60
2022-10-15T15:11:29.538Z,2.60
2022-10-15T15:13:57.952Z,2.60
2022-10-15T15:16:26.237Z,2.30
2022-10-15T15:18:54.604Z,2.70
2022-10-15T15:21:23.785Z,2.80
2022-10-15T15:23:52.085Z,2.90
2022-10-15T15:26:20.373Z,2.70
2022-10-15T15:28:48.656Z,2.80
2022-10-15T15:31:18.803Z,2.80
2022-10-15T15:33:47.079Z,3.00
2022-10-15T15:36:22.484Z,2.50
2022-10-15T15:38:52.215Z,2.60
2022-10-15T15:41:24.076Z,3.20
2022-10-15T15:43:55.181Z,3.60
2022-10-15T15:46:23.584Z,3.40
2022-10-15T15:48:51.821Z,3.90
2022-10-15T15:51:25.582Z,3.40
2022-10-15T15:53:54.802Z,3.70
2022-10-15T15:56:23.619Z,4.10
2022-10-15T15:58:51.969Z,4.60
2022-10-15T16:01:21.298Z,4.00
2022-10-15T16:03:49.671Z,4.10
2022-10-15T16:06:18.149Z,4.50
2022-10-15T16:08:46.468Z,4.80
2022-10-15T16:11:14.818Z,4.70
2022-10-15T16:13:43.331Z,5.00
2022-10-15T16:16:13.222Z,5.00
2022-10-15T16:18:42.133Z,4.90
2022-10-15T16:21:10.397Z,4.30
2022-10-15T16:23:38.642Z,4.70
2022-10-15T16:26:06.935Z,4.70
2022-10-15T16:28:35.328Z,4.00
2022-10-15T16:34:05.351Z,3.80
2022-10-15T16:36:33.916Z,4.40
2022-10-15T16:39:03.623Z,3.50
2022-10-15T16:41:32.021Z,4.10
2022-10-15T16:44:00.381Z,3.90
2022-10-15T16:46:28.774Z,3.70
2022-10-15T16:48:58.010Z,3.60
2022-10-15T16:51:26.916Z,3.80
2022-10-15T16:53:55.447Z,3.60
2022-10-15T16:56:27.800Z,4.50
2022-10-15T16:58:56.507Z,4.30
2022-10-15T17:01:28.746Z,3.60
2022-10-15T17:03:59.772Z,3.90
2022-10-15T17:06:31.059Z,3.80
2022-10-15T17:09:03.708Z,3.90
2022-10-15T17:11:35.803Z,3.70
2022-10-15T17:14:11.658Z,4.30
2022-10-15T17:16:51.470Z,3.40
2022-10-15T17:19:29.136Z,3.50
2022-10-15T17:22:00.163Z,3.60
2022-10-15T17:24:28.721Z,3.50
2022-10-15T17:26:58.192Z,3.50
2022-10-15T17:29:29.159Z,4.20
2022-10-15T17:32:03.164Z,4.20
2022-10-15T17:34:31.557Z,3.40
2022-10-15T17:36:59.934Z,3.80
2022-10-15T17:39:28.295Z,4.00
2022-10-15T17:41:56.469Z,4.50
2022-10-15T17:44:24.952Z,3.70
2022-10-15T17:46:53.448Z,5.00
2022-10-15T17:49:27.748Z,4.50
2022-10-15T17:51:56.346Z,4.20
2022-10-15T17:54:24.827Z,5.30
2022-10-15T17:56:53.410Z,5.00
2022-10-15T17:59:21.891Z,4.80
2022-10-15T18:01:58.262Z,5.90
2022-10-15T18:06:58.534Z,7.00
2022-10-15T18:09:28.391Z,7.10
2022-10-15T18:12:00.748Z,6.60
2022-10-15T18:14:30.308Z,7.20
2022-10-15T18:16:58.773Z,6.60
2022-10-15T18:19:28.340Z,6.20
2022-10-15T18:21:57.182Z,7.00
2022-10-15T18:24:25.541Z,6.60
2022-10-15T18:26:54.396Z,6.30
2022-10-15T18:29:24.122Z,6.50
2022-10-15T18:31:57.351Z,6.40
2022-10-15T18:34:28.477Z,6.00
2022-10-15T18:36:57.177Z,5.90
2022-10-15T18:39:27.181Z,6.40
2022-10-15T18:41:55.647Z,6.80
2022-10-15T18:44:24.666Z,6.70
2022-10-15T18:46:53.030Z,6.50
2022-10-15T18:49:22.513Z,7.10
2022-10-15T18:54:21.133Z,6.20
2022-10-15T18:56:50.678Z,6.20
2022-10-15T18:59:20.863Z,6.10
2022-10-15T19:01:51.058Z,6.00
2022-10-15T19:06:52.121Z,5.90
2022-10-15T19:09:26.442Z,5.70
2022-10-15T19:11:56.536Z,6.00
2022-10-15T19:14:28.320Z,5.80
2022-10-15T19:16:58.115Z,6.30
2022-10-15T19:19:26.804Z,6.10
2022-10-15T19:21:58.590Z,5.70
2022-10-15T19:24:26.901Z,6.40
2022-10-15T19:26:55.286Z,6.30
2022-10-15T19:29:24.307Z,6.40
2022-10-15T19:31:55.178Z,6.30
2022-10-15T19:34:25.302Z,6.40
2022-10-15T19:36:53.671Z,6.30
2022-10-15T19:39:24.438Z,5.90
2022-10-15T19:41:53.191Z,6.00
2022-10-15T19:44:25.788Z,5.60
2022-10-15T19:46:56.384Z,5.60
2022-10-15T19:49:25.521Z,5.70
2022-10-15T19:51:53.859Z,5.30
2022-10-15T19:54:22.688Z,6.00
2022-10-15T19:56:50.983Z,6.00
2022-10-15T19:59:19.377Z,6.50
2022-10-15T20:01:47.966Z,5.50
2022-10-15T20:04:20.634Z,6.20
2022-10-15T20:06:52.738Z,5.90
2022-10-15T20:09:21.005Z,5.20
2022-10-15T20:11:49.384Z,5.60
2022-10-15T20:14:17.887Z,5.70
2022-10-15T20:16:46.258Z,5.80
2022-10-15T20:19:14.636Z,5.50
2022-10-15T20:21:42.993Z,6.00
2022-10-15T20:24:11.260Z,5.50
2022-10-15T20:26:40.473Z,5.40
2022-10-15T20:29:09.789Z,5.70
2022-10-15T20:31:38.372Z,5.70
2022-10-15T20:34:06.641Z,5.80
2022-10-15T20:36:35.046Z,5.70
2022-10-15T20:39:03.499Z,5.60
2022-10-15T20:41:31.862Z,5.90
2022-10-15T20:44:00.232Z,5.80
2022-10-15T20:46:38.688Z,5.20
2022-10-15T20:51:45.954Z,6.30
2022-10-15T20:54:14.785Z,6.70
2022-10-15T20:56:43.249Z,5.40
2022-10-15T20:59:12.453Z,5.40
2022-10-15T21:01:40.813Z,5.60
2022-10-15T21:04:09.182Z,5.10
2022-10-15T21:06:37.582Z,5.90
2022-10-15T21:09:05.949Z,4.50
2022-10-15T21:11:34.234Z,5.40
2022-10-15T21:14:02.606Z,5.30
2022-10-15T21:19:04.925Z,5.80
2022-10-15T21:21:33.319Z,6.20
2022-10-15T21:24:01.679Z,5.20
2022-10-15T21:26:29.934Z,4.90
2022-10-15T21:29:00.261Z,5.10
2022-10-15T21:31:28.774Z,4.90
2022-10-15T21:33:57.405Z,5.30
2022-10-15T21:36:28.463Z,5.00
2022-10-15T21:39:03.884Z,5.00
2022-10-15T21:41:34.141Z,6.20
2022-10-15T21:44:05.248Z,7.90
2022-10-15T21:46:34.782Z,8.50
2022-10-15T21:49:04.162Z,9.20
2022-10-15T21:51:36.325Z,9.90
2022-10-15T21:54:07.259Z,8.80
2022-10-15T21:56:36.559Z,7.60
2022-10-15T21:59:05.461Z,7.30
2022-10-15T22:01:37.989Z,7.20
2022-10-15T22:04:10.201Z,6.30
2022-10-15T22:06:40.427Z,5.70
2022-10-15T22:09:10.662Z,5.70
2022-10-15T22:11:41.561Z,5.60
2022-10-15T22:14:13.927Z,5.00
2022-10-15T22:16:42.959Z,5.60
2022-10-15T22:19:15.542Z,4.60
2022-10-15T22:21:44.781Z,4.70
2022-10-15T22:24:20.259Z,5.10
2022-10-15T22:26:52.148Z,5.10
2022-10-15T22:29:31.674Z,4.60
2022-10-15T22:32:04.257Z,4.40
2022-10-15T22:34:32.643Z,5.30
2022-10-15T22:37:00.915Z,4.30
2022-10-15T22:39:29.402Z,4.60
2022-10-15T22:41:57.774Z,4.30
2022-10-15T22:44:26.050Z,4.50
2022-10-15T22:46:54.408Z,4.20
2022-10-15T22:49:25.674Z,4.50
2022-10-15T22:54:23.402Z,4.40
2022-10-15T22:56:52.134Z,4.00
2022-10-15T22:59:20.714Z,4.60
2022-10-15T23:01:49.204Z,4.00
2022-10-15T23:04:17.476Z,4.20
2022-10-15T23:06:45.940Z,4.20
2022-10-15T23:09:18.158Z,4.70
2022-10-15T23:11:47.039Z,4.30
2022-10-15T23:14:16.802Z,4.30
2022-10-15T23:16:48.082Z,4.80
2022-10-15T23:19:20.642Z,4.60
2022-10-15T23:21:58.326Z,5.00
2022-10-15T23:24:27.722Z,4.50
2022-10-15T23:26:56.403Z,5.20
2022-10-15T23:29:27.010Z,5.50
2022-10-15T23:31:55.598Z,6.40
2022-10-15T23:34:26.240Z,5.70
2022-10-15T23:36:54.976Z,5.30
2022-10-15T23:41:54.887Z,5.90
2022-10-15T23:44:25.942Z,6.00
2022-10-15T23:46:55.111Z,6.80
2022-10-15T23:49:23.638Z,5.70
2022-10-15T23:51:51.997Z,6.20
2022-10-15T23:54:20.493Z,6.50
2022-10-15T23:56:48.959Z,6.20
2022-10-15T23:59:18.477Z,5.40
